createdAt,value
2022-11-17T05:30:42.261Z,10.60
2022-11-17T05:31:42.139Z,10.67
2022-11-17T05:32:42.103Z,10.63
2022-11-17T05:33:42.512Z,10.61
2022-11-17T05:34:42.079Z,10.61
2022-11-17T05:35:42.099Z,10.66
2022-11-17T05:36:42.108Z,10.68
2022-11-17T05:37:42.057Z,10.66
2022-11-17T05:38:42.042Z,10.73
2022-11-17T05:39:42.030Z,10.61
2022-11-17T05:40:42.047Z,10.71
2022-11-17T05:41:42.025Z,10.70
2022-11-17T05:42:42.002Z,10.64
2022-11-17T05:43:41.987Z,10.68
2022-11-17T05:44:41.980Z,10.67
2022-11-17T05:45:41.985Z,10.76
2022-11-17T05:46:42.067Z,10.76
2022-11-17T05:47:41.978Z,10.76
2022-11-17T05:48:41.928Z,10.74
2022-11-17T05:49:41.945Z,10.76
2022-11-17T05:50:41.914Z,10.73
2022-11-17T05:51:41.906Z,10.73
2022-11-17T05:52:41.905Z,10.70
2022-11-17T05:53:41.891Z,10.82
2022-11-17T05:54:41.868Z,10.73
2022-11-17T05:55:41.888Z,10.84
2022-11-17T05:56:41.866Z,10.84
2022-11-17T05:57:41.831Z,10.86
2022-11-17T05:58:41.823Z,10.94
2022-11-17T05:59:41.819Z,10.84
2022-11-17T06:00:41.836Z,10.85
2022-11-17T06:01:41.810Z,10.94
2022-11-17T06:02:41.802Z,10.86
2022-11-17T06:03:41.767Z,10.92
2022-11-17T06:04:41.801Z,10.88
2022-11-17T06:05:41.760Z,10.88
2022-11-17T06:06:41.756Z,10.85
2022-11-17T06:07:41.741Z,10.89
2022-11-17T06:08:41.715Z,10.86
2022-11-17T06:09:41.701Z,10.86
2022-11-17T06:10:41.695Z,10.91
2022-11-17T06:11:41.703Z,10.94
2022-11-17T06:12:41.668Z,10.91
2022-11-17T06:13:41.680Z,11.02
2022-11-17T06:14:41.650Z,10.94
2022-11-17T06:15:41.634Z,10.97
2022-11-17T06:16:41.626Z,10.92
2022-11-17T06:17:41.653Z,10.92
2022-11-17T06:18:41.736Z,10.91
2022-11-17T06:19:41.598Z,11.00
2022-11-17T06:20:41.601Z,10.92
2022-11-17T06:22:04.844Z,10.99
2022-11-17T06:22:48.019Z,10.96
2022-11-17T06:23:42.563Z,10.94
2022-11-17T06:24:41.561Z,10.94
2022-11-17T06:25:41.569Z,10.94
2022-11-17T06:26:41.518Z,10.89
2022-11-17T06:27:41.503Z,10.92
2022-11-17T06:28:41.495Z,10.92
2022-11-17T06:29:44.594Z,10.89
2022-11-17T06:30:41.478Z,10.91
2022-11-17T06:31:41.482Z,10.92
2022-11-17T06:32:41.473Z,10.92
2022-11-17T06:33:41.441Z,10.91
2022-11-17T06:34:41.541Z,10.92
2022-11-17T06:35:41.437Z,10.91
2022-11-17T06:36:41.413Z,10.88
2022-11-17T06:37:41.415Z,11.02
2022-11-17T06:38:41.421Z,10.92
2022-11-17T06:39:41.375Z,10.89
2022-11-17T06:40:41.361Z,10.88
2022-11-17T06:41:41.363Z,10.92
2022-11-17T06:42:41.362Z,10.94
2022-11-17T06:43:41.331Z,10.89
2022-11-17T06:44:41.350Z,10.96
2022-11-17T06:45:41.325Z,10.94
2022-11-17T06:46:46.152Z,11.02
2022-11-17T06:47:42.299Z,10.92
2022-11-17T06:48:41.295Z,10.91
2022-11-17T06:49:41.268Z,10.99
2022-11-17T06:50:41.279Z,10.96
2022-11-17T06:51:45.167Z,11.04
2022-11-17T06:52:41.254Z,11.00
2022-11-17T06:53:41.277Z,11.00
2022-11-17T06:54:41.228Z,11.03
2022-11-17T06:55:41.231Z,11.02
2022-11-17T06:56:41.211Z,11.00
2022-11-17T06:57:41.191Z,10.97
2022-11-17T06:58:41.180Z,10.97
2022-11-17T06:59:41.239Z,11.02
2022-11-17T07:00:41.259Z,11.03
2022-11-17T07:01:41.150Z,10.94
2022-11-17T07:02:41.142Z,11.06
2022-11-17T07:03:41.124Z,11.02
2022-11-17T07:04:41.122Z,11.00
2022-11-17T07:05:41.152Z,11.00
2022-11-17T07:06:41.212Z,11.06
2022-11-17T07:07:41.155Z,11.06
2022-11-17T07:08:41.080Z,11.11
2022-11-17T07:09:41.079Z,11.03
2022-11-17T07:10:46.395Z,11.07
2022-11-17T07:11:41.070Z,11.00
2022-11-17T07:12:41.027Z,11.04
2022-11-17T07:13:41.034Z,11.06
2022-11-17T07:14:41.010Z,10.99
2022-11-17T07:15:40.998Z,10.89
2022-11-17T07:16:40.992Z,10.91
2022-11-17T07:17:41.003Z,10.92
2022-11-17T07:18:40.963Z,10.89
2022-11-17T07:19:40.972Z,10.88
2022-11-17T07:20:40.950Z,10.86
2022-11-17T07:21:40.957Z,10.85
2022-11-17T07:22:40.960Z,10.94
2022-11-17T07:23:40.920Z,10.92
2022-11-17T07:24:40.898Z,10.94
2022-11-17T07:25:40.902Z,10.94
2022-11-17T07:26:40.879Z,10.91
2022-11-17T07:27:40.867Z,10.88
2022-11-17T07:28:40.857Z,10.92
2022-11-17T07:29:40.880Z,10.91
2022-11-17T07:30:40.834Z,10.94
2022-11-17T07:31:40.824Z,10.89
2022-11-17T07:32:40.835Z,10.94
2022-11-17T07:33:40.824Z,10.91
2022-11-17T07:34:40.788Z,10.92
2022-11-17T07:35:40.823Z,10.94
2022-11-17T07:36:40.776Z,10.88
2022-11-17T07:37:40.752Z,10.89
2022-11-17T07:38:40.914Z,10.92
2022-11-17T07:39:40.727Z,10.91
2022-11-17T07:40:40.742Z,10.76
2022-11-17T07:41:40.743Z,10.86
2022-11-17T07:42:40.704Z,10.88
2022-11-17T07:43:40.687Z,10.89
2022-11-17T07:44:40.682Z,10.85
2022-11-17T07:45:40.682Z,10.86
2022-11-17T07:46:40.685Z,10.89
2022-11-17T07:47:40.647Z,10.91
2022-11-17T07:48:40.632Z,10.92
2022-11-17T07:49:40.619Z,10.99
2022-11-17T07:50:40.614Z,10.97
2022-11-17T07:51:40.593Z,10.97
2022-11-17T07:52:41.755Z,10.94
2022-11-17T07:53:40.596Z,11.03
2022-11-17T07:54:40.677Z,10.96
2022-11-17T07:55:40.555Z,11.02
2022-11-17T07:56:40.547Z,11.06
2022-11-17T07:57:40.551Z,11.02
2022-11-17T07:58:40.623Z,11.02
2022-11-17T07:59:40.545Z,11.10
2022-11-17T08:00:40.537Z,11.06
2022-11-17T08:01:40.487Z,11.04
2022-11-17T08:02:40.493Z,11.03
2022-11-17T08:03:40.561Z,11.11
2022-11-17T08:04:40.454Z,11.04
2022-11-17T08:05:43.632Z,11.10
2022-11-17T08:06:40.459Z,11.17
2022-11-17T08:07:40.513Z,11.10
2022-11-17T08:08:40.669Z,11.07
2022-11-17T08:09:40.399Z,11.06
2022-11-17T08:10:40.429Z,11.04
2022-11-17T08:11:40.390Z,11.11
2022-11-17T08:12:40.375Z,11.11
2022-11-17T08:13:40.357Z,11.11
2022-11-17T08:14:40.353Z,11.11
2022-11-17T08:15:40.334Z,11.10
2022-11-17T08:16:40.354Z,11.06
2022-11-17T08:17:40.338Z,11.17
2022-11-17T08:18:40.611Z,11.11
2022-11-17T08:19:40.301Z,11.10
2022-11-17T08:20:40.285Z,11.07
2022-11-17T08:21:40.287Z,11.06
2022-11-17T08:22:40.316Z,11.10
2022-11-17T08:23:40.272Z,11.10
2022-11-17T08:24:40.245Z,11.10
2022-11-17T08:25:40.229Z,11.09
2022-11-17T08:26:40.344Z,11.14
2022-11-17T08:27:40.212Z,11.18
2022-11-17T08:28:40.502Z,11.14
2022-11-17T08:29:40.209Z,11.07
2022-11-17T08:30:40.171Z,11.14
2022-11-17T08:31:40.179Z,11.19
2022-11-17T08:32:40.154Z,11.22
2022-11-17T08:33:40.137Z,11.18
2022-11-17T08:34:40.142Z,11.17
2022-11-17T08:35:40.154Z,11.11
2022-11-17T08:36:40.115Z,11.17
2022-11-17T08:37:40.105Z,11.29
2022-11-17T08:38:40.142Z,11.28
2022-11-17T08:39:40.076Z,11.32
2022-11-17T08:40:40.069Z,11.27
2022-11-17T08:41:40.095Z,11.37
2022-11-17T08:42:40.061Z,11.28
2022-11-17T08:43:40.034Z,11.36
2022-11-17T08:44:40.044Z,11.35
2022-11-17T08:45:40.063Z,11.39
2022-11-17T08:46:39.996Z,11.46
2022-11-17T08:47:40.000Z,11.46
2022-11-17T08:48:40.068Z,11.36
2022-11-17T08:49:39.975Z,11.42
2022-11-17T08:50:39.954Z,11.43
2022-11-17T08:51:39.958Z,11.40
2022-11-17T08:52:39.931Z,11.37
2022-11-17T08:53:39.938Z,11.47
2022-11-17T08:54:39.922Z,11.40
2022-11-17T08:55:41.507Z,11.43
2022-11-17T08:56:40.087Z,11.46
2022-11-17T08:57:39.880Z,11.54
2022-11-17T08:58:40.107Z,11.49
2022-11-17T08:59:39.864Z,11.46
2022-11-17T09:00:39.903Z,11.49
2022-11-17T09:01:39.906Z,11.40
2022-11-17T09:02:39.811Z,11.42
2022-11-17T09:03:39.810Z,11.49
2022-11-17T09:04:39.796Z,11.46
2022-11-17T09:05:39.837Z,11.57
2022-11-17T09:06:39.798Z,11.52
2022-11-17T09:07:39.819Z,11.57
2022-11-17T09:08:47.675Z,11.44
2022-11-17T09:09:40.807Z,11.51
2022-11-17T09:10:39.731Z,11.55
2022-11-17T09:11:39.770Z,11.60
2022-11-17T09:12:39.723Z,11.49
2022-11-17T09:13:39.720Z,11.55
2022-11-17T09:14:39.762Z,11.62
2022-11-17T09:15:39.697Z,11.51
2022-11-17T09:16:39.664Z,11.61
2022-11-17T09:17:39.666Z,11.49
2022-11-17T09:18:40.118Z,11.65
2022-11-17T09:19:39.629Z,11.60
2022-11-17T09:20:45.258Z,11.65
2022-11-17T09:21:40.634Z,11.65
2022-11-17T09:22:39.597Z,11.65
2022-11-17T09:23:39.806Z,11.70
2022-11-17T09:24:39.572Z,11.65
2022-11-17T09:25:39.563Z,11.73
2022-11-17T09:26:39.584Z,11.72
2022-11-17T09:27:39.543Z,11.64
2022-11-17T09:28:39.813Z,11.65
2022-11-17T09:29:39.533Z,11.70
2022-11-17T09:30:39.634Z,11.67
2022-11-17T09:31:39.554Z,11.67
2022-11-17T09:32:39.535Z,11.69
2022-11-17T09:33:39.473Z,11.72
2022-11-17T09:34:39.526Z,11.73
2022-11-17T09:35:39.468Z,11.72
2022-11-17T09:36:39.443Z,11.79
2022-11-17T09:37:39.453Z,11.80
2022-11-17T09:38:39.835Z,11.83
2022-11-17T09:39:39.412Z,11.80
2022-11-17T09:40:39.395Z,11.76
2022-11-17T09:41:39.411Z,11.78
2022-11-17T09:42:39.373Z,11.79
2022-11-17T09:43:39.381Z,11.79
2022-11-17T09:44:39.357Z,11.80
2022-11-17T09:45:39.367Z,11.90
2022-11-17T09:46:39.442Z,11.85
2022-11-17T09:47:39.376Z,11.91
2022-11-17T09:48:51.939Z,11.96
2022-11-17T09:49:40.297Z,11.91
2022-11-17T09:50:39.280Z,11.90
2022-11-17T09:51:39.295Z,11.94
2022-11-17T09:52:39.275Z,11.98
2022-11-17T09:53:39.273Z,11.99
2022-11-17T09:54:39.246Z,11.99
2022-11-17T09:55:39.260Z,11.94
2022-11-17T09:56:39.226Z,12.05
2022-11-17T09:57:39.211Z,12.01
2022-11-17T09:58:39.573Z,12.14
2022-11-17T09:59:39.213Z,12.14
2022-11-17T10:00:39.191Z,12.14
2022-11-17T10:01:39.284Z,12.13
2022-11-17T10:02:39.306Z,12.17
2022-11-17T10:03:45.197Z,12.10
2022-11-17T10:04:40.151Z,12.23
2022-11-17T10:05:39.152Z,12.13
2022-11-17T10:06:39.111Z,12.16
2022-11-17T10:07:39.111Z,12.17
2022-11-17T10:08:39.112Z,12.21
2022-11-17T10:09:39.081Z,12.23
2022-11-17T10:10:39.069Z,12.19
2022-11-17T10:11:39.104Z,12.28
2022-11-17T10:12:39.048Z,12.32
2022-11-17T10:13:39.062Z,12.35
2022-11-17T10:14:39.045Z,12.45
2022-11-17T10:15:39.015Z,12.49
2022-11-17T10:16:39.003Z,12.42
2022-11-17T10:17:39.023Z,12.39
2022-11-17T10:18:39.161Z,12.35
2022-11-17T10:19:38.971Z,12.45
2022-11-17T10:20:38.954Z,12.52
2022-11-17T10:21:38.950Z,12.42
2022-11-17T10:22:38.956Z,12.41
2022-11-17T10:23:45.909Z,12.37
2022-11-17T10:24:39.938Z,12.49
2022-11-17T10:25:38.909Z,12.38
2022-11-17T10:26:38.895Z,12.42
2022-11-17T10:27:38.906Z,12.50
2022-11-17T10:28:38.867Z,12.42
2022-11-17T10:29:38.882Z,12.46
2022-11-17T10:30:38.853Z,12.49
2022-11-17T10:31:38.846Z,12.47
2022-11-17T10:32:40.719Z,12.49
2022-11-17T10:33:39.897Z,12.50
2022-11-17T10:34:40.998Z,12.45
2022-11-17T10:35:38.815Z,12.41
2022-11-17T10:36:38.782Z,12.42
2022-11-17T10:37:38.812Z,12.45
2022-11-17T10:38:38.761Z,12.49
2022-11-17T10:39:38.748Z,12.47
2022-11-17T10:40:38.738Z,12.46
2022-11-17T10:41:38.761Z,12.47
2022-11-17T10:42:38.743Z,12.41
2022-11-17T10:43:38.886Z,12.41
2022-11-17T10:44:38.693Z,12.35
2022-11-17T10:45:38.714Z,12.42
2022-11-17T10:46:46.274Z,12.39
2022-11-17T10:47:38.677Z,12.41
2022-11-17T10:48:38.678Z,12.45
2022-11-17T10:49:38.641Z,12.45
2022-11-17T10:50:38.644Z,12.42
2022-11-17T10:51:38.635Z,12.49
2022-11-17T10:52:38.606Z,12.50
2022-11-17T10:53:44.909Z,12.47
2022-11-17T10:54:39.582Z,12.45
2022-11-17T10:55:38.590Z,12.41
2022-11-17T10:56:38.555Z,12.46
2022-11-17T10:57:38.571Z,12.45
2022-11-17T10:58:38.543Z,12.42
2022-11-17T10:59:38.549Z,12.42
2022-11-17T11:00:38.539Z,12.39
2022-11-17T11:01:38.590Z,12.47
2022-11-17T11:02:38.492Z,12.53
2022-11-17T11:03:38.836Z,12.52
2022-11-17T11:04:38.473Z,12.54
2022-11-17T11:05:38.477Z,12.53
2022-11-17T11:06:38.506Z,12.56
2022-11-17T11:07:38.543Z,12.54
2022-11-17T11:08:38.434Z,12.62
2022-11-17T11:09:38.441Z,12.62
2022-11-17T11:10:38.420Z,12.64
2022-11-17T11:11:38.407Z,12.70
2022-11-17T11:12:38.413Z,12.70
2022-11-17T11:13:38.384Z,12.70
2022-11-17T11:14:38.359Z,12.65
2022-11-17T11:15:38.378Z,12.71
2022-11-17T11:16:41.365Z,12.70
2022-11-17T11:17:39.341Z,12.72
2022-11-17T11:18:38.365Z,12.64
2022-11-17T11:19:38.312Z,12.74
2022-11-17T11:20:38.296Z,12.74
2022-11-17T11:21:38.289Z,12.71
2022-11-17T11:22:38.310Z,12.78
2022-11-17T11:23:38.297Z,12.72
2022-11-17T11:24:38.249Z,12.72
2022-11-17T11:25:38.325Z,12.79
2022-11-17T11:26:38.233Z,12.82
2022-11-17T11:27:38.223Z,12.83
2022-11-17T11:28:42.722Z,12.82
2022-11-17T11:29:39.206Z,12.82
2022-11-17T11:30:38.184Z,12.82
2022-11-17T11:31:38.182Z,12.85
2022-11-17T11:32:38.193Z,12.83
2022-11-17T11:33:38.166Z,12.79
2022-11-17T11:34:38.172Z,12.78
2022-11-17T11:35:38.131Z,12.83
2022-11-17T11:36:38.146Z,12.87
2022-11-17T11:37:38.114Z,12.92
2022-11-17T11:38:38.122Z,12.82
2022-11-17T11:39:38.113Z,12.83
2022-11-17T11:40:38.116Z,12.85
2022-11-17T11:41:38.099Z,12.83
2022-11-17T11:42:38.053Z,12.92
2022-11-17T11:43:38.047Z,12.97
2022-11-17T11:44:38.028Z,12.87
2022-11-17T11:45:38.036Z,12.89
2022-11-17T11:46:38.056Z,12.96
2022-11-17T11:47:38.000Z,12.89
2022-11-17T11:48:37.990Z,12.90
2022-11-17T11:49:38.127Z,12.95
2022-11-17T11:50:41.748Z,12.87
2022-11-17T11:51:37.952Z,12.96
2022-11-17T11:52:37.958Z,13.00
2022-11-17T11:53:37.945Z,12.95
2022-11-17T11:54:40.333Z,13.07
2022-11-17T11:55:37.915Z,13.00
2022-11-17T11:56:37.896Z,13.07
2022-11-17T11:57:37.898Z,13.11
2022-11-17T11:58:37.902Z,13.12
2022-11-17T11:59:37.881Z,13.00
2022-11-17T12:00:37.888Z,13.10
2022-11-17T12:01:37.839Z,13.03
2022-11-17T12:02:37.898Z,13.08
2022-11-17T12:03:37.906Z,13.08
2022-11-17T12:04:37.824Z,13.05
2022-11-17T12:05:37.816Z,13.05
2022-11-17T12:06:37.783Z,13.04
2022-11-17T12:07:37.832Z,13.10
2022-11-17T12:08:37.778Z,13.08
2022-11-17T12:09:37.771Z,13.10
2022-11-17T12:10:37.755Z,13.12
2022-11-17T12:11:37.735Z,13.04
2022-11-17T12:12:37.734Z,13.10
2022-11-17T12:13:43.834Z,13.03
2022-11-17T12:14:37.702Z,13.07
2022-11-17T12:15:37.726Z,13.07
2022-11-17T12:16:37.672Z,13.03
2022-11-17T12:17:37.665Z,13.08
2022-11-17T12:18:37.651Z,13.17
2022-11-17T12:19:37.661Z,13.20
2022-11-17T12:20:37.646Z,13.14
2022-11-17T12:21:37.636Z,13.11
2022-11-17T12:22:37.606Z,13.26
2022-11-17T12:23:37.642Z,13.28
2022-11-17T12:24:37.595Z,13.29
2022-11-17T12:25:37.577Z,13.33
2022-11-17T12:26:37.592Z,13.28
2022-11-17T12:27:37.575Z,13.32
2022-11-17T12:28:37.553Z,13.39
2022-11-17T12:29:37.536Z,13.29
2022-11-17T12:30:37.520Z,13.30
2022-11-17T12:31:37.574Z,13.30
2022-11-17T12:32:37.511Z,13.28
2022-11-17T12:33:37.492Z,13.36
2022-11-17T12:34:37.498Z,13.36
2022-11-17T12:35:37.461Z,13.44
2022-11-17T12:36:37.523Z,13.41
2022-11-17T12:37:37.474Z,13.42
2022-11-17T12:38:37.467Z,13.38
2022-11-17T12:39:37.424Z,13.42
2022-11-17T12:40:37.409Z,13.49
2022-11-17T12:41:37.406Z,13.38
2022-11-17T12:42:37.416Z,13.41
2022-11-17T12:43:37.377Z,13.41
2022-11-17T12:44:37.418Z,13.51
2022-11-17T12:45:41.750Z,13.46
2022-11-17T12:46:37.345Z,13.49
2022-11-17T12:47:37.396Z,13.54
2022-11-17T12:48:37.488Z,13.51
2022-11-17T12:49:37.315Z,13.55
2022-11-17T12:50:37.359Z,13.54
2022-11-17T12:51:37.297Z,13.46
2022-11-17T12:52:37.285Z,13.51
2022-11-17T12:53:37.263Z,13.54
2022-11-17T12:54:37.258Z,13.52
2022-11-17T12:55:37.267Z,13.62
2022-11-17T12:56:37.254Z,13.48
2022-11-17T12:57:37.227Z,13.51
2022-11-17T12:58:37.241Z,13.44
2022-11-17T12:59:37.224Z,13.48
2022-11-17T13:00:37.212Z,13.51
2022-11-17T13:01:37.227Z,13.36
2022-11-17T13:02:37.217Z,13.41
2022-11-17T13:03:37.182Z,13.45
2022-11-17T13:04:37.180Z,13.36
2022-11-17T13:05:37.138Z,13.52
2022-11-17T13:06:37.304Z,13.41
2022-11-17T13:07:37.182Z,13.46
2022-11-17T13:08:37.116Z,13.36
2022-11-17T13:09:37.135Z,13.48
2022-11-17T13:10:37.097Z,13.36
2022-11-17T13:11:37.073Z,13.36
2022-11-17T13:12:37.065Z,13.29
2022-11-17T13:13:37.793Z,13.33
2022-11-17T13:14:37.073Z,13.25
2022-11-17T13:15:37.051Z,13.28
2022-11-17T13:16:37.027Z,13.22
2022-11-17T13:17:37.003Z,13.25
2022-11-17T13:18:36.994Z,13.15
2022-11-17T13:19:37.014Z,13.23
2022-11-17T13:20:36.977Z,13.22
2022-11-17T13:21:36.957Z,13.25
2022-11-17T13:22:41.760Z,13.28
2022-11-17T13:23:36.943Z,13.28
2022-11-17T13:24:36.973Z,13.20
2022-11-17T13:25:36.919Z,13.17
2022-11-17T13:26:36.952Z,13.25
2022-11-17T13:27:36.897Z,13.28
2022-11-17T13:28:36.901Z,13.25
2022-11-17T13:29:36.893Z,13.32
2022-11-17T13:30:36.916Z,13.25
2022-11-17T13:31:36.847Z,13.29
2022-11-17T13:32:36.845Z,13.28
2022-11-17T13:33:40.147Z,13.38
2022-11-17T13:34:36.845Z,13.30
2022-11-17T13:35:36.824Z,13.32
2022-11-17T13:36:36.794Z,13.29
2022-11-17T13:37:36.822Z,13.32
2022-11-17T13:38:36.790Z,13.29
2022-11-17T13:39:36.760Z,13.38
2022-11-17T13:40:36.787Z,13.36
2022-11-17T13:41:36.750Z,13.26
2022-11-17T13:42:36.779Z,13.26
2022-11-17T13:43:36.715Z,13.28
2022-11-17T13:44:36.740Z,13.28
2022-11-17T13:45:36.715Z,13.19
2022-11-17T13:46:36.714Z,13.23
2022-11-17T13:47:36.793Z,13.22
2022-11-17T13:48:36.663Z,13.20
2022-11-17T13:49:36.675Z,13.23
2022-11-17T13:50:36.656Z,13.12
2022-11-17T13:51:36.716Z,13.19
2022-11-17T13:52:41.922Z,13.17
2022-11-17T13:53:37.628Z,13.23
2022-11-17T13:54:36.657Z,13.17
2022-11-17T13:55:36.633Z,13.20
2022-11-17T13:56:36.613Z,13.28
2022-11-17T13:57:36.607Z,13.22
2022-11-17T13:58:36.561Z,13.29
2022-11-17T13:59:36.587Z,13.23
2022-11-17T14:00:36.537Z,13.22
2022-11-17T14:01:36.614Z,13.23
2022-11-17T14:02:36.574Z,13.23
2022-11-17T14:03:36.525Z,13.14
2022-11-17T14:04:36.526Z,13.17
2022-11-17T14:05:36.477Z,13.17
2022-11-17T14:06:36.499Z,13.10
2022-11-17T14:07:36.633Z,13.07
2022-11-17T14:08:36.447Z,13.05
2022-11-17T14:09:36.459Z,13.07
2022-11-17T14:10:36.436Z,12.93
2022-11-17T14:11:36.404Z,12.97
2022-11-17T14:12:36.400Z,13.00
2022-11-17T14:13:36.420Z,12.95
2022-11-17T14:14:36.375Z,12.93
2022-11-17T14:15:36.367Z,12.97
2022-11-17T14:16:36.465Z,12.95
2022-11-17T14:17:36.354Z,12.97
2022-11-17T14:18:36.362Z,12.87
2022-11-17T14:19:36.320Z,12.90
2022-11-17T14:20:36.328Z,13.00
2022-11-17T14:21:36.344Z,12.92
2022-11-17T14:22:36.306Z,12.89
2022-11-17T14:23:36.308Z,12.95
2022-11-17T14:24:36.344Z,12.90
2022-11-17T14:25:36.342Z,12.90
2022-11-17T14:26:36.280Z,12.83
2022-11-17T14:27:36.294Z,12.87
2022-11-17T14:28:36.298Z,12.96
2022-11-17T14:29:36.326Z,12.95
2022-11-17T14:30:37.149Z,12.93
2022-11-17T14:31:36.317Z,12.96
2022-11-17T14:32:36.222Z,12.87
2022-11-17T14:33:36.415Z,12.92
2022-11-17T14:34:36.321Z,12.89
2022-11-17T14:35:36.161Z,12.83
2022-11-17T14:36:36.167Z,12.85
2022-11-17T14:37:36.214Z,12.79
2022-11-17T14:38:36.167Z,12.85
2022-11-17T14:39:36.125Z,12.85
2022-11-17T14:40:36.125Z,12.79
2022-11-17T14:41:36.147Z,12.82
2022-11-17T14:42:36.494Z,12.78
2022-11-17T14:43:36.807Z,12.78
2022-11-17T14:44:36.093Z,12.75
2022-11-17T14:45:36.037Z,12.71
2022-11-17T14:46:36.064Z,12.85
2022-11-17T14:47:36.114Z,12.74
2022-11-17T14:48:36.035Z,12.79
2022-11-17T14:49:35.995Z,12.86
2022-11-17T14:50:36.171Z,12.74
2022-11-17T14:51:36.436Z,12.74
2022-11-17T14:52:36.425Z,12.74
2022-11-17T14:53:41.787Z,12.68
2022-11-17T14:54:36.039Z,12.70
2022-11-17T14:55:35.944Z,12.71
2022-11-17T14:56:35.939Z,12.72
2022-11-17T14:57:35.939Z,12.72
2022-11-17T14:58:35.927Z,12.68
2022-11-17T14:59:35.938Z,12.65
2022-11-17T15:00:35.870Z,12.71
2022-11-17T15:01:35.871Z,12.65
2022-11-17T15:02:35.897Z,12.65
2022-11-17T15:03:35.933Z,12.64
2022-11-17T15:04:49.945Z,12.65
2022-11-17T15:05:36.822Z,12.52
2022-11-17T15:06:35.867Z,12.46
2022-11-17T15:07:35.851Z,12.42
2022-11-17T15:08:35.831Z,12.47
2022-11-17T15:09:35.781Z,12.41
2022-11-17T15:10:35.780Z,12.46
2022-11-17T15:11:39.417Z,12.42
2022-11-17T15:12:35.762Z,12.38
2022-11-17T15:13:35.747Z,12.41
2022-11-17T15:14:35.734Z,12.41
2022-11-17T15:15:35.741Z,12.53
2022-11-17T15:16:35.699Z,12.38
2022-11-17T15:17:35.698Z,12.37
2022-11-17T15:18:35.703Z,12.47
2022-11-17T15:19:35.676Z,12.41
2022-11-17T15:20:35.672Z,12.42
2022-11-17T15:21:35.648Z,12.45
2022-11-17T15:22:35.638Z,12.42
2022-11-17T15:23:35.637Z,12.34
2022-11-17T15:24:35.637Z,12.34
2022-11-17T15:25:35.596Z,12.41
2022-11-17T15:26:35.593Z,12.37
2022-11-17T15:27:35.590Z,12.28
2022-11-17T15:28:35.581Z,12.35
2022-11-17T15:29:35.544Z,12.28
2022-11-17T15:30:35.584Z,12.24
2022-11-17T15:31:35.555Z,12.32
2022-11-17T15:32:35.522Z,12.24
2022-11-17T15:33:35.522Z,12.35
2022-11-17T15:34:36.222Z,12.16
2022-11-17T15:35:35.501Z,12.31
2022-11-17T15:36:35.503Z,12.31
2022-11-17T15:37:35.466Z,12.21
2022-11-17T15:38:35.482Z,12.29
2022-11-17T15:39:35.455Z,12.24
2022-11-17T15:40:35.455Z,12.23
2022-11-17T15:41:35.451Z,12.21
2022-11-17T15:42:35.421Z,12.21
2022-11-17T15:43:35.404Z,12.10
2022-11-17T15:44:35.392Z,12.19
2022-11-17T15:45:35.379Z,12.19
2022-11-17T15:46:35.394Z,12.13
2022-11-17T15:47:35.370Z,12.19
2022-11-17T15:48:35.358Z,12.19
2022-11-17T15:49:35.750Z,12.23
2022-11-17T15:50:35.364Z,12.21
2022-11-17T15:51:35.321Z,12.16
2022-11-17T15:53:02.305Z,12.20
2022-11-17T15:53:36.385Z,12.09
2022-11-17T15:54:35.292Z,12.17
2022-11-17T15:55:35.284Z,12.09
2022-11-17T15:56:35.269Z,12.16
2022-11-17T15:57:35.262Z,12.13
2022-11-17T15:58:35.254Z,12.09
2022-11-17T15:59:35.258Z,12.07
2022-11-17T16:00:35.230Z,12.02
2022-11-17T16:01:35.383Z,12.04
2022-11-17T16:02:58.422Z,11.99
2022-11-17T16:03:36.209Z,12.10
2022-11-17T16:04:35.188Z,11.96
2022-11-17T16:05:35.154Z,11.94
2022-11-17T16:06:35.153Z,12.01
2022-11-17T16:07:35.270Z,12.01
2022-11-17T16:08:35.130Z,12.05
2022-11-17T16:09:35.119Z,12.02
2022-11-17T16:10:35.113Z,12.01
2022-11-17T16:11:35.123Z,12.02
2022-11-17T16:12:35.105Z,12.10
2022-11-17T16:13:35.067Z,11.99
2022-11-17T16:14:35.087Z,12.01
2022-11-17T16:15:35.039Z,11.94
2022-11-17T16:16:35.039Z,11.98
2022-11-17T16:17:35.112Z,11.95
2022-11-17T16:18:35.047Z,11.83
2022-11-17T16:19:35.016Z,11.73
2022-11-17T16:20:35.128Z,11.83
2022-11-17T16:21:35.029Z,11.88
2022-11-17T16:22:34.971Z,11.83
2022-11-17T16:23:34.961Z,11.75
2022-11-17T16:24:34.966Z,11.85
2022-11-17T16:25:34.942Z,11.85
2022-11-17T16:26:34.970Z,11.73
2022-11-17T16:27:34.938Z,11.83
2022-11-17T16:28:34.901Z,11.73
2022-11-17T16:29:34.900Z,11.73
2022-11-17T16:30:35.731Z,11.79
2022-11-17T16:31:34.893Z,11.78
2022-11-17T16:32:34.872Z,11.73
2022-11-17T16:33:34.867Z,11.76
2022-11-17T16:34:34.894Z,11.78
2022-11-17T16:35:36.219Z,11.67
2022-11-17T16:36:37.216Z,11.67
2022-11-17T16:37:34.819Z,11.72
2022-11-17T16:38:34.899Z,11.72
2022-11-17T16:39:34.814Z,11.61
2022-11-17T16:40:34.847Z,11.64
2022-11-17T16:41:38.724Z,11.62
2022-11-17T16:43:44.751Z,11.57
2022-11-17T16:44:44.120Z,11.55
2022-11-17T16:45:44.704Z,11.55
2022-11-17T16:46:44.709Z,11.60
2022-11-17T16:47:44.005Z,11.52
2022-11-17T16:48:44.002Z,11.54
2022-11-17T16:49:46.757Z,11.57
2022-11-17T16:50:44.969Z,11.49
2022-11-17T16:51:43.984Z,11.47
2022-11-17T16:52:43.977Z,11.46
2022-11-17T16:53:43.937Z,11.43
2022-11-17T16:54:43.948Z,11.44
2022-11-17T16:55:43.913Z,11.37
2022-11-17T16:56:43.928Z,11.39
2022-11-17T16:57:43.893Z,11.42
2022-11-17T16:58:43.906Z,11.46
2022-11-17T16:59:43.916Z,11.33
2022-11-17T17:00:43.871Z,11.35
2022-11-17T17:01:43.847Z,11.39
2022-11-17T17:02:43.925Z,11.32
2022-11-17T17:03:43.821Z,11.35
2022-11-17T17:04:43.812Z,11.29
2022-11-17T17:05:43.826Z,11.33
2022-11-17T17:06:43.798Z,11.25
2022-11-17T17:07:43.845Z,11.36
2022-11-17T17:08:43.790Z,11.33
2022-11-17T17:09:43.781Z,11.32
2022-11-17T17:10:43.752Z,11.29
2022-11-17T17:11:43.776Z,11.24
2022-11-17T17:12:43.748Z,11.22
2022-11-17T17:13:43.751Z,11.28
2022-11-17T17:14:43.710Z,11.37
2022-11-17T17:15:43.689Z,11.32
2022-11-17T17:16:43.695Z,11.36
2022-11-17T17:17:43.690Z,11.17
2022-11-17T17:18:43.681Z,11.28
2022-11-17T17:19:43.652Z,11.35
2022-11-17T17:20:43.643Z,11.24
2022-11-17T17:21:43.640Z,11.18
2022-11-17T17:22:43.618Z,11.33
2022-11-17T17:23:43.656Z,11.25
2022-11-17T17:24:43.604Z,11.17
2022-11-17T17:25:43.585Z,11.29
2022-11-17T17:26:43.579Z,11.19
2022-11-17T17:27:43.585Z,11.18
2022-11-17T17:28:43.571Z,11.25
2022-11-17T17:29:43.546Z,11.36
2022-11-17T17:30:43.546Z,11.21
2022-11-17T17:31:43.564Z,11.24
2022-11-17T17:32:43.514Z,11.22
2022-11-17T17:33:43.518Z,11.22
2022-11-17T17:34:44.230Z,11.24
2022-11-17T17:35:43.493Z,11.39
2022-11-17T17:36:43.480Z,11.29
2022-11-17T17:37:43.497Z,11.42
2022-11-17T17:38:43.477Z,11.36
2022-11-17T17:39:43.468Z,11.35
2022-11-17T17:40:43.453Z,11.28
2022-11-17T17:41:43.463Z,11.33
2022-11-17T17:42:43.441Z,11.32
2022-11-17T17:43:43.419Z,11.39
2022-11-17T17:44:43.443Z,11.35
2022-11-17T17:45:43.386Z,11.37
2022-11-17T17:46:43.368Z,11.32
2022-11-17T17:47:43.355Z,11.39
2022-11-17T17:48:43.421Z,11.27
2022-11-17T17:49:43.353Z,11.32
2022-11-17T17:50:43.333Z,11.33
2022-11-17T17:51:43.339Z,11.32
2022-11-17T17:52:43.302Z,11.25
2022-11-17T17:53:43.288Z,11.28
2022-11-17T17:54:43.285Z,11.33
2022-11-17T17:55:43.278Z,11.36
2022-11-17T17:56:43.262Z,11.36
2022-11-17T17:57:43.268Z,11.33
2022-11-17T17:58:43.252Z,11.25
2022-11-17T17:59:43.238Z,11.24
2022-11-17T18:00:43.231Z,11.25
2022-11-17T18:01:43.229Z,11.29
2022-11-17T18:02:43.220Z,11.22
2022-11-17T18:03:43.199Z,11.21
2022-11-17T18:04:43.170Z,11.18
2022-11-17T18:05:43.191Z,11.24
2022-11-17T18:06:43.145Z,11.25
2022-11-17T18:07:43.182Z,11.14
2022-11-17T18:08:43.123Z,11.14
2022-11-17T18:09:43.165Z,11.14
2022-11-17T18:10:43.117Z,11.19
2022-11-17T18:11:43.086Z,11.17
2022-11-17T18:12:43.090Z,11.18
2022-11-17T18:13:43.097Z,11.17
2022-11-17T18:14:43.082Z,11.09
2022-11-17T18:15:43.067Z,11.18
2022-11-17T18:16:43.063Z,11.18
2022-11-17T18:17:43.038Z,11.24
2022-11-17T18:18:43.050Z,11.11
2022-11-17T18:19:43.021Z,11.27
2022-11-17T18:20:43.000Z,11.10
2022-11-17T18:21:43.052Z,11.04
2022-11-17T18:22:42.980Z,11.00
2022-11-17T18:23:42.981Z,10.99